createdAt,value
2023-04-11T00:02:05.215Z,100573.23
2023-04-11T00:04:34.573Z,100566.61
2023-04-11T00:07:02.986Z,100560.48
2023-04-11T00:09:31.804Z,100553.73
2023-04-11T00:12:01.966Z,100548.04
2023-04-11T00:14:32.573Z,100545.12
2023-04-11T00:17:01.794Z,100540.70
2023-04-11T00:19:30.880Z,100542.33
2023-04-11T00:22:00.736Z,100539.05
2023-04-11T00:24:29.218Z,100536.80
2023-04-11T00:26:58.542Z,100534.39
2023-04-11T00:29:27.295Z,100533.00
2023-04-11T00:31:56.912Z,100530.74
2023-04-11T00:34:25.848Z,100530.48
2023-04-11T00:36:54.483Z,100528.63
2023-04-11T00:39:23.025Z,100530.27
2023-04-11T00:41:51.310Z,100531.82
2023-04-11T00:44:19.829Z,100527.09
2023-04-11T00:46:48.355Z,100528.05
2023-04-11T00:49:16.820Z,100529.39
2023-04-11T00:51:45.371Z,100523.88
2023-04-11T00:54:14.556Z,100524.48
2023-04-11T00:56:43.602Z,100517.31
2023-04-11T00:59:12.577Z,100512.52
2023-04-11T01:01:41.941Z,100510.10
2023-04-11T01:04:10.707Z,100505.36
2023-04-11T01:06:40.177Z,100504.70
2023-04-11T01:09:08.613Z,100502.64
2023-04-11T01:11:37.282Z,100500.10
2023-04-11T01:14:06.858Z,100502.08
2023-04-11T01:16:35.382Z,100501.70
2023-04-11T01:19:04.577Z,100503.95
2023-04-11T01:21:33.406Z,100506.55
2023-04-11T01:24:04.031Z,100502.17
2023-04-11T01:26:32.533Z,100502.36
2023-04-11T01:29:02.217Z,100503.80
2023-04-11T01:31:32.728Z,100502.23
2023-04-11T01:34:02.153Z,100498.23
2023-04-11T01:36:31.827Z,100496.92
2023-04-11T01:39:00.529Z,100496.13
2023-04-11T01:41:30.941Z,100492.26
2023-04-11T01:44:00.961Z,100484.98
2023-04-11T01:46:29.929Z,100483.70
2023-04-11T01:49:00.646Z,100478.13
2023-04-11T01:51:29.263Z,100474.34
2023-04-11T01:53:58.041Z,100466.91
2023-04-11T01:56:26.534Z,100462.88
2023-04-11T01:58:55.171Z,100462.30
2023-04-11T02:01:23.954Z,100459.09
2023-04-11T02:03:52.556Z,100458.89
2023-04-11T02:06:20.938Z,100458.06
2023-04-11T02:08:49.468Z,100456.89
2023-04-11T02:11:17.874Z,100453.55
2023-04-11T02:13:46.737Z,100453.56
2023-04-11T02:16:18.191Z,100447.05
2023-04-11T02:18:47.199Z,100441.64
2023-04-11T02:21:15.601Z,100438.65
2023-04-11T02:23:44.184Z,100438.62
2023-04-11T02:26:14.123Z,100436.00
2023-04-11T02:28:42.587Z,100429.83
2023-04-11T02:31:11.338Z,100429.24
2023-04-11T02:33:39.748Z,100426.48
2023-04-11T02:36:08.272Z,100420.33
2023-04-11T02:38:37.711Z,100419.73
2023-04-11T02:41:07.027Z,100416.95
2023-04-11T02:43:35.727Z,100410.34
2023-04-11T02:46:12.835Z,100406.31
2023-04-11T02:48:43.712Z,100404.84
2023-04-11T02:51:13.222Z,100401.91
2023-04-11T02:53:41.651Z,100393.82
2023-04-11T02:56:10.984Z,100395.41
2023-04-11T02:58:42.198Z,100395.00
2023-04-11T03:01:12.173Z,100392.64
2023-04-11T03:03:41.762Z,100391.64
2023-04-11T03:06:10.707Z,100386.52
2023-04-11T03:08:39.846Z,100389.89
2023-04-11T03:11:08.620Z,100389.15
2023-04-11T03:13:40.111Z,100388.95
2023-04-11T03:16:08.915Z,100385.90
2023-04-11T03:18:37.429Z,100383.33
2023-04-11T03:21:11.653Z,100379.77
2023-04-11T03:23:45.936Z,100376.34
2023-04-11T03:26:15.308Z,100371.53
2023-04-11T03:28:44.842Z,100368.05
2023-04-11T03:31:14.517Z,100362.58
2023-04-11T03:33:43.059Z,100355.36
2023-04-11T03:36:12.193Z,100353.51
2023-04-11T03:38:40.899Z,100351.00
2023-04-11T03:41:09.471Z,100350.85
2023-04-11T03:43:38.671Z,100348.79
2023-04-11T03:46:07.796Z,100349.52
2023-04-11T03:48:42.830Z,100346.73
2023-04-11T03:51:11.280Z,100347.64
2023-04-11T03:53:57.070Z,100341.54
2023-04-11T03:56:29.731Z,100341.59
2023-04-11T03:58:58.494Z,100341.02
2023-04-11T04:01:30.133Z,100334.42
2023-04-11T04:04:02.445Z,100327.06
2023-04-11T04:06:31.449Z,100321.98
2023-04-11T04:08:59.970Z,100319.17
2023-04-11T04:11:30.119Z,100315.08
2023-04-11T04:13:58.812Z,100311.54
2023-04-11T04:16:27.340Z,100312.89
2023-04-11T04:18:58.030Z,100311.50
2023-04-11T04:21:26.921Z,100310.59
2023-04-11T04:24:03.769Z,100309.33
2023-04-11T04:26:58.062Z,100309.08
2023-04-11T04:29:53.940Z,100304.90
2023-04-11T04:32:36.309Z,100303.61
2023-04-11T04:35:10.560Z,100298.66
2023-04-11T04:37:45.694Z,100299.17
2023-04-11T04:40:40.041Z,100298.20
2023-04-11T04:43:11.778Z,100295.14
2023-04-11T04:45:49.495Z,100295.23
2023-04-11T04:48:25.766Z,100288.47
2023-04-11T04:50:54.252Z,100290.54
2023-04-11T04:53:22.832Z,100291.40
2023-04-11T04:55:55.384Z,100289.58
2023-04-11T04:58:24.005Z,100289.21
2023-04-11T05:00:56.250Z,100282.45
2023-04-11T05:03:29.327Z,100279.36
2023-04-11T05:05:59.740Z,100272.45
2023-04-11T05:08:28.523Z,100277.20
2023-04-11T05:10:59.533Z,100273.11
2023-04-11T05:13:28.063Z,100270.89
2023-04-11T05:15:56.782Z,100267.62
2023-04-11T05:18:29.690Z,100265.20
2023-04-11T05:20:58.490Z,100257.39
2023-04-11T05:23:31.937Z,100257.52
2023-04-11T05:26:02.225Z,100255.79
2023-04-11T05:28:31.893Z,100258.88
2023-04-11T05:31:00.981Z,100258.42
2023-04-11T05:33:30.939Z,100257.73
2023-04-11T05:36:00.266Z,100250.55
2023-04-11T05:38:29.049Z,100249.05
2023-04-11T05:40:57.596Z,100249.81
2023-04-11T05:43:27.654Z,100241.08
2023-04-11T05:45:57.261Z,100243.30
2023-04-11T05:48:25.849Z,100243.38
2023-04-11T05:50:55.068Z,100243.72
2023-04-11T05:53:23.686Z,100240.92
2023-04-11T05:55:52.496Z,100241.12
2023-04-11T05:58:21.100Z,100232.64
2023-04-11T06:00:49.934Z,100231.89
2023-04-11T06:03:18.421Z,100227.11
2023-04-11T06:05:47.112Z,100228.77
2023-04-11T06:08:15.784Z,100230.77
2023-04-11T06:10:44.172Z,100225.50
2023-04-11T06:13:12.612Z,100224.84
2023-04-11T06:15:41.456Z,100218.74
2023-04-11T06:18:09.928Z,100219.39
2023-04-11T06:20:38.289Z,100211.32
2023-04-11T06:23:07.386Z,100207.98
2023-04-11T06:25:35.719Z,100198.72
2023-04-11T06:28:04.068Z,100204.95
2023-04-11T06:30:32.791Z,100195.73
2023-04-11T06:33:01.317Z,100197.52
2023-04-11T06:35:29.636Z,100193.83
2023-04-11T06:37:58.176Z,100183.79
2023-04-11T06:40:26.589Z,100183.59
2023-04-11T06:42:56.017Z,100179.35
2023-04-11T06:45:24.397Z,100173.38
2023-04-11T06:47:53.033Z,100167.85
2023-04-11T06:50:21.612Z,100171.30
2023-04-11T06:52:50.409Z,100167.70
2023-04-11T06:55:18.861Z,100166.73
2023-04-11T06:57:47.275Z,100168.46
2023-04-11T07:00:16.602Z,100164.31
2023-04-11T07:02:45.425Z,100160.35
2023-04-11T07:05:14.033Z,100157.62
2023-04-11T07:07:42.744Z,100157.80
2023-04-11T07:10:11.312Z,100153.73
2023-04-11T07:12:39.601Z,100147.56
2023-04-11T07:15:09.294Z,100142.38
2023-04-11T07:17:38.067Z,100145.13
2023-04-11T07:20:09.430Z,100144.52
2023-04-11T07:22:37.925Z,100141.59
2023-04-11T07:25:06.685Z,100134.66
2023-04-11T07:27:36.410Z,100133.85
2023-04-11T07:30:05.452Z,100128.90
2023-04-11T07:32:33.929Z,100127.11
2023-04-11T07:35:02.240Z,100124.89
2023-04-11T07:37:31.341Z,100120.50
2023-04-11T07:39:59.877Z,100116.67
2023-04-11T07:42:28.380Z,100114.17
2023-04-11T07:45:59.902Z,100106.86
2023-04-11T07:49:08.105Z,100104.66
2023-04-11T07:52:16.553Z,100098.63
2023-04-11T07:54:44.901Z,100091.17
2023-04-11T07:57:53.191Z,100085.02
2023-04-11T08:01:24.665Z,100074.22
2023-04-11T08:04:36.334Z,100067.48
2023-04-11T08:07:44.762Z,100062.56
2023-04-11T08:10:53.018Z,100058.21
2023-04-11T08:14:24.946Z,100050.98
2023-04-11T08:17:37.964Z,100049.88
2023-04-11T08:20:46.585Z,100050.31
2023-04-11T08:23:55.090Z,100046.48
2023-04-11T08:27:26.728Z,100036.73
2023-04-11T08:29:55.020Z,100033.31
2023-04-11T08:33:03.366Z,100029.70
2023-04-11T08:36:11.900Z,100030.09
2023-04-11T08:39:20.365Z,100037.27
2023-04-11T08:42:51.884Z,100021.60
2023-04-11T08:46:00.147Z,100010.36
2023-04-11T08:49:08.486Z,100008.65
2023-04-11T08:52:16.886Z,99995.86
2023-04-11T08:55:25.325Z,99990.23
2023-04-11T08:58:33.717Z,99989.73
2023-04-11T09:01:53.262Z,99981.05
2023-04-11T09:04:47.574Z,99977.88
2023-04-11T09:08:18.970Z,99968.67
2023-04-11T09:11:27.170Z,99969.86
2023-04-11T09:14:47.214Z,99970.92
2023-04-11T09:56:37.747Z,99981.90
2023-04-11T09:59:06.715Z,99984.95
2023-04-11T10:01:37.466Z,99980.05
2023-04-11T10:04:06.165Z,99981.04
2023-04-11T10:06:49.056Z,99978.44
2023-04-11T10:09:17.822Z,99970.73
2023-04-11T10:11:46.729Z,99969.50
2023-04-11T10:14:38.010Z,99960.07
2023-04-11T10:17:24.215Z,99961.48
2023-04-11T10:19:57.197Z,99955.56
2023-04-11T10:22:51.762Z,99957.84
2023-04-11T10:25:27.166Z,99940.02
2023-04-11T10:28:01.395Z,99943.21
2023-04-11T10:30:42.348Z,99939.62
2023-04-11T10:33:11.899Z,99935.95
2023-04-11T10:36:03.577Z,99928.84
2023-04-11T10:38:32.040Z,99926.82
2023-04-11T10:41:33.705Z,99925.20
2023-04-11T10:44:20.939Z,99921.27
2023-04-11T10:46:54.528Z,99920.45
2023-04-11T10:49:34.153Z,99920.67
2023-04-11T10:52:22.595Z,99920.34
2023-04-11T10:54:52.654Z,99914.40
2023-04-11T10:57:21.761Z,99909.33
2023-04-11T10:59:50.150Z,99913.15
2023-04-11T11:02:22.295Z,99916.06
2023-04-11T11:04:51.373Z,99911.52
2023-04-11T11:07:19.730Z,99910.81
2023-04-11T11:09:49.812Z,99901.30
2023-04-11T11:12:18.605Z,99908.77
2023-04-11T11:14:47.585Z,99896.30
2023-04-11T11:17:17.198Z,99890.56
2023-04-11T11:19:47.402Z,99887.32
2023-04-11T11:22:17.381Z,99887.86
2023-04-11T11:24:45.801Z,99890.86
2023-04-11T11:27:21.898Z,99892.77
2023-04-11T11:29:51.110Z,99893.23
2023-04-11T11:32:29.014Z,99889.85
2023-04-11T11:34:58.881Z,99889.52
2023-04-11T11:37:27.244Z,99887.96
2023-04-11T11:39:56.064Z,99884.39
2023-04-11T11:42:24.586Z,99884.97
2023-04-11T11:44:53.097Z,99885.14
2023-04-11T11:47:22.883Z,99880.39
2023-04-11T11:49:55.672Z,99888.24
2023-04-11T11:52:41.246Z,99887.14
2023-04-11T11:55:30.905Z,99884.88
2023-04-11T11:58:02.466Z,99882.95
2023-04-11T12:00:35.449Z,99885.58
2023-04-11T12:03:05.302Z,99885.16
2023-04-11T12:05:35.149Z,99887.79
2023-04-11T12:08:07.716Z,99880.86
2023-04-11T12:10:39.207Z,99877.71
2023-04-11T12:13:16.484Z,99871.46
2023-04-11T12:15:49.012Z,99873.53
2023-04-11T12:18:21.052Z,99877.43
2023-04-11T12:20:50.147Z,99874.30
2023-04-11T12:23:19.067Z,99873.08
2023-04-11T12:25:48.051Z,99874.25
2023-04-11T12:29:16.167Z,99878.49
2023-04-11T12:32:44.258Z,99871.89
2023-04-11T12:36:12.308Z,99871.56
2023-04-11T12:38:41.393Z,99872.84
2023-04-11T12:43:42.743Z,99869.02
2023-04-11T12:50:44.824Z,99871.61
2023-04-11T12:53:13.136Z,99872.48
2023-04-11T12:55:41.596Z,99873.77
2023-04-11T12:58:10.017Z,99862.45
2023-04-11T13:00:38.524Z,99863.21
2023-04-11T13:03:07.352Z,99860.33
2023-04-11T13:05:37.245Z,99861.13
2023-04-11T13:08:05.632Z,99866.86
2023-04-11T13:10:33.973Z,99861.61
2023-04-11T13:13:11.881Z,99861.88
2023-04-11T13:15:46.711Z,99861.78
2023-04-11T13:18:15.437Z,99858.33
2023-04-11T13:20:43.918Z,99857.43
2023-04-11T13:23:13.693Z,99853.73
2023-04-11T13:25:43.704Z,99851.89
2023-04-11T13:28:12.556Z,99852.16
2023-04-11T13:30:41.282Z,99858.92
2023-04-11T13:33:09.981Z,99854.21
2023-04-11T13:35:38.484Z,99856.03
2023-04-11T13:38:06.914Z,99858.42
2023-04-11T13:40:36.200Z,99858.26
2023-04-11T13:43:04.745Z,99859.10
2023-04-11T13:45:33.185Z,99859.02
2023-04-11T13:48:02.882Z,99852.52
2023-04-11T13:51:20.789Z,99859.77
2023-04-11T13:53:49.314Z,99865.49
2023-04-11T13:56:18.050Z,99861.70
2023-04-11T13:58:46.548Z,99861.60
2023-04-11T14:01:15.585Z,99857.20
2023-04-11T14:03:45.035Z,99856.17
2023-04-11T14:06:13.731Z,99853.77
2023-04-11T14:08:42.246Z,99847.87
2023-04-11T14:11:10.471Z,99849.96
2023-04-11T14:13:39.050Z,99854.05
2023-04-11T14:16:09.273Z,99855.14
2023-04-11T14:18:37.916Z,99851.05
2023-04-11T14:21:07.453Z,99851.52
2023-04-11T14:23:36.941Z,99850.07
2023-04-11T14:26:05.696Z,99850.00
2023-04-11T14:28:34.289Z,99851.73
2023-04-11T14:31:02.929Z,99849.89
2023-04-11T14:33:31.713Z,99850.63
2023-04-11T14:36:01.006Z,99849.77
2023-04-11T14:38:29.746Z,99850.96
2023-04-11T14:40:58.211Z,99849.39
2023-04-11T14:43:26.906Z,99845.04
2023-04-11T14:45:57.542Z,99842.27
2023-04-11T14:48:27.558Z,99841.75
2023-04-11T14:50:55.974Z,99835.98
2023-04-11T14:54:04.524Z,99833.48
2023-04-11T14:56:32.962Z,99824.35
2023-04-11T14:59:01.776Z,99822.95
2023-04-11T15:01:31.006Z,99820.53
2023-04-11T15:03:59.756Z,99828.73
2023-04-11T15:06:28.665Z,99828.38
2023-04-11T15:08:57.144Z,99833.77
2023-04-11T15:11:27.490Z,99835.08
2023-04-11T15:13:56.298Z,99845.23
2023-04-11T15:16:25.053Z,99848.45
2023-04-11T15:18:53.471Z,99852.86
2023-04-11T15:21:22.103Z,99852.66
2023-04-11T15:23:51.021Z,99848.78
2023-04-11T15:26:19.412Z,99849.60
2023-04-11T15:28:48.233Z,99847.23
2023-04-11T15:31:26.732Z,99845.61
2023-04-11T15:34:03.575Z,99844.55
2023-04-11T15:36:32.463Z,99847.73
2023-04-11T15:39:01.176Z,99849.22
2023-04-11T15:41:30.630Z,99844.55
2023-04-11T15:44:00.621Z,99846.56
2023-04-11T15:46:30.312Z,99842.83
2023-04-11T15:48:58.710Z,99843.67
2023-04-11T15:51:27.381Z,99840.96
2023-04-11T15:53:56.324Z,99836.77
2023-04-11T15:56:24.856Z,99839.94
2023-04-11T15:58:53.182Z,99837.21
2023-04-11T16:01:25.408Z,99830.36
2023-04-11T16:03:54.365Z,99830.64
2023-04-11T16:06:23.020Z,99828.23
2023-04-11T16:08:51.446Z,99825.33
2023-04-11T16:11:20.065Z,99826.09
2023-04-11T16:13:48.756Z,99818.69
2023-04-11T16:16:17.169Z,99815.78
2023-04-11T16:18:45.692Z,99806.05
2023-04-11T16:21:16.174Z,99803.35
2023-04-11T16:23:44.688Z,99798.27
2023-04-11T16:26:13.068Z,99798.16
2023-04-11T16:28:41.621Z,99802.62
2023-04-11T16:31:09.958Z,99805.92
2023-04-11T16:33:38.289Z,99805.58
2023-04-11T16:36:07.264Z,99802.27
2023-04-11T16:38:35.868Z,99798.14
2023-04-11T16:41:04.427Z,99797.32
2023-04-11T16:43:32.845Z,99793.23
2023-04-11T16:46:01.385Z,99781.69
2023-04-11T16:48:30.784Z,99784.27
2023-04-11T16:50:59.535Z,99769.84
2023-04-11T16:53:27.942Z,99780.66
2023-04-11T16:55:57.071Z,99784.14
2023-04-11T16:58:25.406Z,99782.30
2023-04-11T17:00:54.544Z,99780.74
2023-04-11T17:03:23.168Z,99781.77
2023-04-11T17:05:51.879Z,99777.95
2023-04-11T17:08:20.523Z,99776.48
2023-04-11T17:10:48.976Z,99781.40
2023-04-11T17:13:57.644Z,99779.64
2023-04-11T17:17:05.937Z,99780.88
2023-04-11T17:19:34.524Z,99779.27
2023-04-11T17:22:44.613Z,99785.16
2023-04-11T17:26:18.461Z,99787.20
2023-04-11T17:29:27.940Z,99790.20
2023-04-11T17:32:38.250Z,99792.52
2023-04-11T17:35:47.391Z,99794.03
2023-04-11T17:39:19.543Z,99798.60
2023-04-11T17:42:27.670Z,99795.88
2023-04-11T17:45:36.151Z,99793.73
2023-04-11T17:48:44.447Z,99795.02
2023-04-11T17:52:16.578Z,99790.45
2023-04-11T17:54:44.875Z,99793.41
2023-04-11T17:57:54.057Z,99790.49
2023-04-11T18:01:04.642Z,99790.23
2023-04-11T18:04:14.879Z,99784.62
2023-04-11T18:06:46.245Z,99786.11
2023-04-11T18:09:17.806Z,99785.31
2023-04-11T18:11:49.441Z,99786.09
2023-04-11T18:14:18.086Z,99785.98
2023-04-11T18:16:47.005Z,99784.86
2023-04-11T18:19:15.782Z,99783.80
2023-04-11T18:21:44.138Z,99787.58
2023-04-11T18:24:12.900Z,99789.63
2023-04-11T18:26:42.810Z,99789.05
2023-04-11T18:29:11.290Z,99790.18
2023-04-11T18:32:48.096Z,99784.52
2023-04-11T18:35:58.209Z,99786.96
2023-04-11T18:39:06.591Z,99780.34
2023-04-11T18:46:26.375Z,99790.64
2023-04-11T18:48:55.074Z,99795.26
2023-04-11T18:52:23.526Z,99792.45
2023-04-11T18:59:50.579Z,99792.09
2023-04-11T19:02:31.591Z,99790.65
2023-04-11T19:05:00.744Z,99789.49
2023-04-11T19:07:31.753Z,99786.66
2023-04-11T19:10:00.635Z,99782.42
2023-04-11T19:12:29.016Z,99778.38
2023-04-11T19:14:57.618Z,99776.72
2023-04-11T19:17:26.473Z,99774.26
2023-04-11T19:19:58.185Z,99771.80
2023-04-11T19:22:29.906Z,99768.13
2023-04-11T19:24:58.601Z,99768.33
2023-04-11T19:27:27.360Z,99766.82
2023-04-11T19:29:57.500Z,99767.64
2023-04-11T19:32:26.239Z,99767.11
2023-04-11T19:34:54.578Z,99763.25
2023-04-11T19:37:24.085Z,99758.21
2023-04-11T19:39:52.769Z,99758.27
2023-04-11T19:42:21.361Z,99755.68
2023-04-11T19:44:49.911Z,99754.90
2023-04-11T19:47:19.652Z,99751.11
2023-04-11T19:49:48.812Z,99752.22
2023-04-11T19:52:17.942Z,99753.62
2023-04-11T19:54:47.336Z,99753.29
2023-04-11T19:57:15.876Z,99749.14
2023-04-11T19:59:45.702Z,99749.63
2023-04-11T20:02:14.322Z,99745.11
2023-04-11T20:04:44.774Z,99741.30
2023-04-11T20:07:13.801Z,99742.89
2023-04-11T20:14:35.623Z,99736.27
2023-04-11T20:18:03.690Z,99736.97
2023-04-11T20:21:32.081Z,99736.57
2023-04-11T20:25:00.223Z,99740.14
2023-04-11T20:32:20.471Z,99735.91
2023-04-11T20:35:06.469Z,99736.52
2023-04-11T20:37:35.730Z,99741.51
2023-04-11T20:41:04.333Z,99740.95
2023-04-11T20:44:36.817Z,99740.29
2023-04-11T20:47:05.419Z,99740.98
2023-04-11T20:49:34.218Z,99740.65
2023-04-11T20:52:02.828Z,99739.34
2023-04-11T20:54:31.468Z,99737.35
2023-04-11T20:56:59.941Z,99736.23
2023-04-11T20:59:30.157Z,99733.89
2023-04-11T21:01:58.437Z,99730.05
2023-04-11T21:04:28.429Z,99732.52
2023-04-11T21:06:57.176Z,99725.48
2023-04-11T21:09:25.721Z,99724.10
2023-04-11T21:11:54.201Z,99723.80
2023-04-11T21:14:22.827Z,99724.73
2023-04-11T21:16:51.090Z,99723.51
2023-04-11T21:19:19.535Z,99722.80
2023-04-11T21:21:47.984Z,99725.83
2023-04-11T21:24:16.397Z,99729.48
2023-04-11T21:26:47.183Z,99724.80
2023-04-11T21:29:15.816Z,99723.59
2023-04-11T21:31:44.426Z,99718.33
2023-04-11T21:34:13.049Z,99719.81
2023-04-11T21:36:41.473Z,99716.60
2023-04-11T21:39:09.891Z,99712.40
2023-04-11T21:41:38.546Z,99709.21
2023-04-11T21:44:47.102Z,99708.90
2023-04-11T21:47:55.412Z,99701.60
2023-04-11T21:51:04.124Z,99703.23
2023-04-11T21:54:37.737Z,99697.02
2023-04-11T21:57:46.208Z,99697.59
2023-04-11T22:00:50.827Z,99699.48
2023-04-11T22:03:59.645Z,99697.17
2023-04-11T22:07:33.602Z,99696.83
2023-04-11T22:10:48.553Z,99691.80
2023-04-11T22:13:58.518Z,99691.89
2023-04-11T22:17:07.104Z,99691.15
2023-04-11T22:20:16.683Z,99689.27
2023-04-11T22:23:25.506Z,99685.71
2023-04-11T22:26:36.764Z,99681.08
2023-04-11T22:30:10.618Z,99679.56
2023-04-11T22:33:19.028Z,99672.77
2023-04-11T22:36:05.374Z,99669.30
2023-04-11T22:39:33.504Z,99666.96
2023-04-11T22:43:01.826Z,99665.98
2023-04-11T22:46:29.906Z,99665.00
2023-04-11T22:50:03.226Z,99664.48
2023-04-11T22:53:31.419Z,99660.54
2023-04-11T22:56:59.486Z,99660.21
2023-04-11T23:02:20.931Z,99657.88
2023-04-11T23:04:49.486Z,99656.17
2023-04-11T23:08:17.643Z,99655.25
2023-04-11T23:11:17.829Z,99653.85
2023-04-11T23:13:47.184Z,99650.84
2023-04-11T23:16:15.670Z,99651.15
2023-04-11T23:18:44.097Z,99653.45
2023-04-11T23:21:15.486Z,99649.77
2023-04-11T23:23:44.115Z,99649.62
2023-04-11T23:26:20.859Z,99644.89
2023-04-11T23:28:49.641Z,99642.42
2023-04-11T23:31:18.583Z,99639.28
2023-04-11T23:37:38.508Z,99648.74
2023-04-11T23:40:11.002Z,99646.79
2023-04-11T23:42:40.844Z,99644.80
2023-04-11T23:45:10.857Z,99644.46
2023-04-11T23:47:39.331Z,99639.88
2023-04-11T23:50:08.570Z,99644.23
2023-04-11T23:53:36.864Z,99642.55
2023-04-11T23:57:05.041Z,99635.06
